Armada Township, Michigan
Current Conditions -  °F | °C
As of 5:55 PM on Thursday 18 Dec 2014 (Local Time) from KMTC Reporting Station
Light Snow Light Snow  
Wind Chill: -4°   Ceiling: 1300
Heat Index: -1°   Visibility: 10mi
Dew Point: -1°   Wind: 5mph
Humidity: 100%   Direction: 30°NNE
Pressure: 30.14"   Gusts: NA
Location:  42.8463°N, 82.9201°W
Report Text: KMTC 182255Z 03004KT 10SM -SN SCT008 BKN013 OVC023 M01/M01 A3014 RMK SLP224 T10111011
Loading
Personal Weather Stations






























Interactive Weather Map New forecast layout! Learn more

10-Day Weather Forecast

Advertisements
Track Severe Weather on mobile